Weather at Altoona Blair County Airport

Public forecast

Using degrees Fahrenheit for public forecast. Weather courtesy of forecast.io.

Current aviation weather report (METAR) for Altoona Blair County Airport

Report is more than 6 hours old.

2022/11/14 14:53 (retrieved 2 years ago)

KAOO 141453Z AUTO 34010KT 10SM OVC036 02/M06 A3035 RMK AO2 SLP292 T00221061 51011

Aviation forecast (TAF) for Altoona Blair County Airport

Forecast is more than 12 hours old.

2023/02/22 20:06 Ammendment (retrieved 1 year ago)

TAF AMD KAOO 222003Z 2220/2318 10006KT P6SM SCT011 OVC040 FM230000 17008KT 6SM BR OVC025 WS020/22035KT FM230500 22010G20KT 4SM -SHRA BR OVC004 WS015/24040KT